sensor_id;sensor_type;location;lat;lon;timestamp;P1;durP1;ratioP1;P2;durP2;ratioP2
20397;SDS011;10358;49.590;11.030;2023-04-15T00:00:13;8.30;;;5.90;;
20397;SDS011;10358;49.590;11.030;2023-04-15T00:02:40;7.83;;;6.00;;
20397;SDS011;10358;49.590;11.030;2023-04-15T00:05:05;9.40;;;6.20;;
20397;SDS011;10358;49.590;11.030;2023-04-15T00:07:31;9.80;;;5.83;;
20397;SDS011;10358;49.590;11.030;2023-04-15T00:09:57;11.33;;;5.93;;
20397;SDS011;10358;49.590;11.030;2023-04-15T00:12:23;9.60;;;6.00;;
20397;SDS011;10358;49.590;11.030;2023-04-15T00:14:49;7.80;;;5.60;;
20397;SDS011;10358;49.590;11.030;2023-04-15T00:17:15;10.10;;;6.07;;
20397;SDS011;10358;49.590;11.030;2023-04-15T00:19:41;9.40;;;6.10;;
20397;SDS011;10358;49.590;11.030;2023-04-15T00:22:08;8.97;;;6.50;;
20397;SDS011;10358;49.590;11.030;2023-04-15T00:24:34;10.17;;;5.63;;
20397;SDS011;10358;49.590;11.030;2023-04-15T00:26:59;8.33;;;5.53;;
20397;SDS011;10358;49.590;11.030;2023-04-15T00:29:25;8.23;;;5.87;;
20397;SDS011;10358;49.590;11.030;2023-04-15T00:31:51;8.53;;;5.97;;
20397;SDS011;10358;49.590;11.030;2023-04-15T00:34:16;8.30;;;6.00;;
20397;SDS011;10358;49.590;11.030;2023-04-15T00:36:42;9.23;;;6.07;;
20397;SDS011;10358;49.590;11.030;2023-04-15T00:39:08;9.40;;;5.93;;
20397;SDS011;10358;49.590;11.030;2023-04-15T00:41:34;6.83;;;5.33;;
20397;SDS011;10358;49.590;11.030;2023-04-15T00:44:03;9.30;;;5.63;;
20397;SDS011;10358;49.590;11.030;2023-04-15T00:46:29;11.03;;;5.60;;
20397;SDS011;10358;49.590;11.030;2023-04-15T00:48:57;8.03;;;5.47;;
20397;SDS011;10358;49.590;11.030;2023-04-15T00:51:23;9.27;;;5.23;;
20397;SDS011;10358;49.590;11.030;2023-04-15T00:53:49;8.50;;;5.90;;
20397;SDS011;10358;49.590;11.030;2023-04-15T00:56:15;8.70;;;5.63;;
20397;SDS011;10358;49.590;11.030;2023-04-15T00:58:41;12.17;;;5.73;;
20397;SDS011;10358;49.590;11.030;2023-04-15T01:01:07;8.07;;;5.50;;
20397;SDS011;10358;49.590;11.030;2023-04-15T01:03:32;6.33;;;4.90;;
20397;SDS011;10358;49.590;11.030;2023-04-15T01:05:59;10.93;;;5.37;;
20397;SDS011;10358;49.590;11.030;2023-04-15T01:08:28;7.20;;;5.40;;
20397;SDS011;10358;49.590;11.030;2023-04-15T01:10:57;11.73;;;5.97;;
20397;SDS011;10358;49.590;11.030;2023-04-15T01:13:26;10.47;;;6.00;;
20397;SDS011;10358;49.590;11.030;2023-04-15T01:15:52;10.13;;;6.00;;
20397;SDS011;10358;49.590;11.030;2023-04-15T01:18:18;9.13;;;6.40;;
20397;SDS011;10358;49.590;11.030;2023-04-15T01:20:44;8.33;;;5.90;;
20397;SDS011;10358;49.590;11.030;2023-04-15T01:23:10;9.07;;;5.90;;
20397;SDS011;10358;49.590;11.030;2023-04-15T01:25:37;10.20;;;6.20;;
20397;SDS011;10358;49.590;11.030;2023-04-15T01:28:03;7.17;;;5.27;;
20397;SDS011;10358;49.590;11.030;2023-04-15T01:30:32;8.40;;;5.57;;
20397;SDS011;10358;49.590;11.030;2023-04-15T01:32:58;7.83;;;5.37;;
20397;SDS011;10358;49.590;11.030;2023-04-15T01:35:24;7.80;;;5.53;;
20397;SDS011;10358;49.590;11.030;2023-04-15T01:37:49;11.87;;;5.33;;
20397;SDS011;10358;49.590;11.030;2023-04-15T01:40:15;7.57;;;5.23;;
20397;SDS011;10358;49.590;11.030;2023-04-15T01:42:41;7.77;;;5.20;;
20397;SDS011;10358;49.590;11.030;2023-04-15T01:45:06;11.17;;;5.50;;
20397;SDS011;10358;49.590;11.030;2023-04-15T01:47:32;8.07;;;5.20;;
20397;SDS011;10358;49.590;11.030;2023-04-15T01:49:58;9.23;;;4.80;;
20397;SDS011;10358;49.590;11.030;2023-04-15T01:52:23;6.10;;;4.63;;
20397;SDS011;10358;49.590;11.030;2023-04-15T01:54:49;8.13;;;5.43;;
20397;SDS011;10358;49.590;11.030;2023-04-15T01:57:15;6.83;;;5.00;;
20397;SDS011;10358;49.590;11.030;2023-04-15T01:59:41;8.67;;;5.20;;
20397;SDS011;10358;49.590;11.030;2023-04-15T02:02:06;6.93;;;5.17;;
20397;SDS011;10358;49.590;11.030;2023-04-15T02:04:32;6.90;;;5.17;;
20397;SDS011;10358;49.590;11.030;2023-04-15T02:06:58;10.07;;;4.97;;
20397;SDS011;10358;49.590;11.030;2023-04-15T02:09:24;8.20;;;5.47;;
20397;SDS011;10358;49.590;11.030;2023-04-15T02:11:50;11.13;;;5.50;;
20397;SDS011;10358;49.590;11.030;2023-04-15T02:14:16;6.73;;;5.10;;
20397;SDS011;10358;49.590;11.030;2023-04-15T02:16:42;11.40;;;5.47;;
20397;SDS011;10358;49.590;11.030;2023-04-15T02:19:08;9.77;;;5.70;;
20397;SDS011;10358;49.590;11.030;2023-04-15T02:21:33;9.40;;;5.60;;
20397;SDS011;10358;49.590;11.030;2023-04-15T02:23:59;9.87;;;5.37;;
20397;SDS011;10358;49.590;11.030;2023-04-15T02:26:26;8.33;;;5.40;;
20397;SDS011;10358;49.590;11.030;2023-04-15T02:28:52;8.40;;;5.20;;
20397;SDS011;10358;49.590;11.030;2023-04-15T02:31:17;7.77;;;5.47;;
20397;SDS011;10358;49.590;11.030;2023-04-15T02:33:43;7.77;;;4.83;;
20397;SDS011;10358;49.590;11.030;2023-04-15T02:36:09;11.17;;;5.13;;
20397;SDS011;10358;49.590;11.030;2023-04-15T02:38:36;8.50;;;5.10;;
20397;SDS011;10358;49.590;11.030;2023-04-15T02:41:02;8.03;;;4.80;;
20397;SDS011;10358;49.590;11.030;2023-04-15T02:43:28;6.53;;;4.83;;
20397;SDS011;10358;49.590;11.030;2023-04-15T02:45:54;8.77;;;4.87;;
20397;SDS011;10358;49.590;11.030;2023-04-15T02:48:20;8.33;;;5.33;;
20397;SDS011;10358;49.590;11.030;2023-04-15T02:50:45;11.03;;;4.77;;
20397;SDS011;10358;49.590;11.030;2023-04-15T02:53:12;6.20;;;4.73;;
20397;SDS011;10358;49.590;11.030;2023-04-15T02:55:38;10.87;;;5.10;;
20397;SDS011;10358;49.590;11.030;2023-04-15T02:58:05;9.63;;;4.50;;
20397;SDS011;10358;49.590;11.030;2023-04-15T03:00:31;8.60;;;5.33;;
20397;SDS011;10358;49.590;11.030;2023-04-15T03:02:57;8.50;;;4.97;;
20397;SDS011;10358;49.590;11.030;2023-04-15T03:05:27;8.60;;;4.50;;
20397;SDS011;10358;49.590;11.030;2023-04-15T03:07:52;9.03;;;5.10;;
20397;SDS011;10358;49.590;11.030;2023-04-15T03:10:18;6.73;;;4.37;;
20397;SDS011;10358;49.590;11.030;2023-04-15T03:12:44;9.07;;;4.73;;
20397;SDS011;10358;49.590;11.030;2023-04-15T03:15:10;6.17;;;4.50;;
20397;SDS011;10358;49.590;11.030;2023-04-15T03:17:36;7.87;;;4.73;;
20397;SDS011;10358;49.590;11.030;2023-04-15T03:20:01;7.07;;;4.67;;
20397;SDS011;10358;49.590;11.030;2023-04-15T03:22:29;6.80;;;4.97;;
20397;SDS011;10358;49.590;11.030;2023-04-15T03:24:57;6.97;;;4.77;;
20397;SDS011;10358;49.590;11.030;2023-04-15T03:27:23;8.03;;;5.30;;
20397;SDS011;10358;49.590;11.030;2023-04-15T03:29:49;8.50;;;5.03;;
20397;SDS011;10358;49.590;11.030;2023-04-15T03:32:15;6.70;;;5.07;;
20397;SDS011;10358;49.590;11.030;2023-04-15T03:34:41;7.13;;;4.80;;
20397;SDS011;10358;49.590;11.030;2023-04-15T03:37:07;7.70;;;4.63;;
20397;SDS011;10358;49.590;11.030;2023-04-15T03:39:33;6.50;;;4.93;;
20397;SDS011;10358;49.590;11.030;2023-04-15T03:41:59;10.40;;;4.97;;
20397;SDS011;10358;49.590;11.030;2023-04-15T03:44:25;8.13;;;4.83;;
20397;SDS011;10358;49.590;11.030;2023-04-15T03:46:51;8.97;;;5.00;;
20397;SDS011;10358;49.590;11.030;2023-04-15T03:49:17;5.80;;;4.73;;
20397;SDS011;10358;49.590;11.030;2023-04-15T03:51:43;7.87;;;4.67;;
20397;SDS011;10358;49.590;11.030;2023-04-15T03:54:09;7.87;;;5.10;;
20397;SDS011;10358;49.590;11.030;2023-04-15T03:56:35;7.67;;;5.10;;
20397;SDS011;10358;49.590;11.030;2023-04-15T03:59:00;7.53;;;4.53;;
20397;SDS011;10358;49.590;11.030;2023-04-15T04:01:26;8.23;;;5.67;;
20397;SDS011;10358;49.590;11.030;2023-04-15T04:03:52;5.80;;;4.37;;
20397;SDS011;10358;49.590;11.030;2023-04-15T04:06:17;6.63;;;4.80;;
20397;SDS011;10358;49.590;11.030;2023-04-15T04:08:43;7.90;;;5.40;;
20397;SDS011;10358;49.590;11.030;2023-04-15T04:11:08;9.93;;;5.37;;
20397;SDS011;10358;49.590;11.030;2023-04-15T04:13:34;8.87;;;4.93;;
20397;SDS011;10358;49.590;11.030;2023-04-15T04:15:59;7.33;;;5.07;;
20397;SDS011;10358;49.590;11.030;2023-04-15T04:18:25;7.13;;;4.93;;
20397;SDS011;10358;49.590;11.030;2023-04-15T04:20:51;7.80;;;4.80;;
20397;SDS011;10358;49.590;11.030;2023-04-15T04:23:16;6.40;;;4.80;;
20397;SDS011;10358;49.590;11.030;2023-04-15T04:25:42;6.87;;;4.73;;
20397;SDS011;10358;49.590;11.030;2023-04-15T04:28:07;8.60;;;5.33;;
20397;SDS011;10358;49.590;11.030;2023-04-15T04:30:34;9.53;;;4.73;;
20397;SDS011;10358;49.590;11.030;2023-04-15T04:33:00;5.67;;;4.63;;
20397;SDS011;10358;49.590;11.030;2023-04-15T04:35:25;7.83;;;4.90;;
20397;SDS011;10358;49.590;11.030;2023-04-15T04:37:51;7.17;;;4.80;;
20397;SDS011;10358;49.590;11.030;2023-04-15T04:40:17;8.27;;;4.43;;
20397;SDS011;10358;49.590;11.030;2023-04-15T04:42:43;6.63;;;4.90;;
20397;SDS011;10358;49.590;11.030;2023-04-15T04:45:09;7.50;;;4.90;;
20397;SDS011;10358;49.590;11.030;2023-04-15T04:47:35;6.70;;;4.70;;
20397;SDS011;10358;49.590;11.030;2023-04-15T04:50:00;9.57;;;5.00;;
20397;SDS011;10358;49.590;11.030;2023-04-15T04:52:26;9.23;;;5.50;;
20397;SDS011;10358;49.590;11.030;2023-04-15T04:54:51;6.73;;;4.60;;
20397;SDS011;10358;49.590;11.030;2023-04-15T04:57:17;9.13;;;5.10;;
20397;SDS011;10358;49.590;11.030;2023-04-15T04:59:43;8.00;;;5.33;;
20397;SDS011;10358;49.590;11.030;2023-04-15T05:02:08;8.57;;;5.43;;
20397;SDS011;10358;49.590;11.030;2023-04-15T05:04:34;8.70;;;5.20;;
20397;SDS011;10358;49.590;11.030;2023-04-15T05:07:00;9.37;;;5.20;;
20397;SDS011;10358;49.590;11.030;2023-04-15T05:09:26;7.87;;;4.77;;
20397;SDS011;10358;49.590;11.030;2023-04-15T05:11:52;7.73;;;4.97;;
20397;SDS011;10358;49.590;11.030;2023-04-15T05:14:17;7.90;;;5.53;;
20397;SDS011;10358;49.590;11.030;2023-04-15T05:16:43;7.57;;;5.43;;
20397;SDS011;10358;49.590;11.030;2023-04-15T05:19:08;7.07;;;5.30;;
20397;SDS011;10358;49.590;11.030;2023-04-15T05:21:34;8.73;;;5.70;;
20397;SDS011;10358;49.590;11.030;2023-04-15T05:24:00;9.60;;;5.50;;
20397;SDS011;10358;49.590;11.030;2023-04-15T05:26:25;13.67;;;9.10;;
20397;SDS011;10358;49.590;11.030;2023-04-15T05:28:51;10.23;;;6.13;;
20397;SDS011;10358;49.590;11.030;2023-04-15T05:31:17;10.13;;;6.73;;
20397;SDS011;10358;49.590;11.030;2023-04-15T05:33:42;18.87;;;10.10;;
20397;SDS011;10358;49.590;11.030;2023-04-15T05:36:08;20.90;;;10.30;;
20397;SDS011;10358;49.590;11.030;2023-04-15T05:38:33;27.00;;;13.77;;
20397;SDS011;10358;49.590;11.030;2023-04-15T05:40:59;37.97;;;17.93;;
20397;SDS011;10358;49.590;11.030;2023-04-15T05:43:25;32.37;;;15.40;;
20397;SDS011;10358;49.590;11.030;2023-04-15T05:45:51;30.87;;;14.80;;
20397;SDS011;10358;49.590;11.030;2023-04-15T05:48:16;30.17;;;14.90;;
20397;SDS011;10358;49.590;11.030;2023-04-15T05:50:42;23.97;;;12.47;;
20397;SDS011;10358;49.590;11.030;2023-04-15T05:53:07;14.97;;;11.30;;
20397;SDS011;10358;49.590;11.030;2023-04-15T05:55:33;22.83;;;12.77;;
20397;SDS011;10358;49.590;11.030;2023-04-15T05:57:58;12.07;;;6.47;;
20397;SDS011;10358;49.590;11.030;2023-04-15T06:00:24;21.47;;;11.07;;
20397;SDS011;10358;49.590;11.030;2023-04-15T06:02:50;27.83;;;12.20;;
20397;SDS011;10358;49.590;11.030;2023-04-15T06:05:16;55.10;;;21.17;;
20397;SDS011;10358;49.590;11.030;2023-04-15T06:07:43;61.50;;;24.47;;
20397;SDS011;10358;49.590;11.030;2023-04-15T06:10:08;33.50;;;13.73;;
20397;SDS011;10358;49.590;11.030;2023-04-15T06:12:34;27.43;;;12.60;;
20397;SDS011;10358;49.590;11.030;2023-04-15T06:15:00;16.13;;;9.70;;
20397;SDS011;10358;49.590;11.030;2023-04-15T06:17:26;15.43;;;9.60;;
20397;SDS011;10358;49.590;11.030;2023-04-15T06:19:52;11.40;;;7.57;;
20397;SDS011;10358;49.590;11.030;2023-04-15T06:22:21;10.40;;;7.47;;
20397;SDS011;10358;49.590;11.030;2023-04-15T06:24:47;13.47;;;9.00;;
20397;SDS011;10358;49.590;11.030;2023-04-15T06:27:15;8.87;;;6.30;;
20397;SDS011;10358;49.590;11.030;2023-04-15T06:29:41;11.10;;;6.50;;
20397;SDS011;10358;49.590;11.030;2023-04-15T06:32:07;11.47;;;7.57;;
20397;SDS011;10358;49.590;11.030;2023-04-15T06:34:33;12.87;;;7.50;;
20397;SDS011;10358;49.590;11.030;2023-04-15T06:36:58;10.07;;;7.10;;
20397;SDS011;10358;49.590;11.030;2023-04-15T06:39:25;9.67;;;6.33;;
20397;SDS011;10358;49.590;11.030;2023-04-15T06:41:51;10.80;;;5.70;;
20397;SDS011;10358;49.590;11.030;2023-04-15T06:44:17;12.83;;;9.40;;
20397;SDS011;10358;49.590;11.030;2023-04-15T06:46:42;8.80;;;6.07;;
20397;SDS011;10358;49.590;11.030;2023-04-15T06:49:08;9.33;;;6.53;;
20397;SDS011;10358;49.590;11.030;2023-04-15T06:51:34;13.37;;;8.33;;
20397;SDS011;10358;49.590;11.030;2023-04-15T06:54:00;12.13;;;8.50;;
20397;SDS011;10358;49.590;11.030;2023-04-15T06:56:26;13.20;;;9.73;;
20397;SDS011;10358;49.590;11.030;2023-04-15T06:58:52;12.23;;;6.37;;
20397;SDS011;10358;49.590;11.030;2023-04-15T07:01:18;9.23;;;7.23;;
20397;SDS011;10358;49.590;11.030;2023-04-15T07:03:43;11.07;;;6.30;;
20397;SDS011;10358;49.590;11.030;2023-04-15T07:06:10;10.80;;;6.97;;
20397;SDS011;10358;49.590;11.030;2023-04-15T07:08:35;12.00;;;8.10;;
20397;SDS011;10358;49.590;11.030;2023-04-15T07:11:01;9.20;;;6.77;;
20397;SDS011;10358;49.590;11.030;2023-04-15T07:13:29;10.90;;;5.80;;
20397;SDS011;10358;49.590;11.030;2023-04-15T07:15:55;9.10;;;6.17;;
20397;SDS011;10358;49.590;11.030;2023-04-15T07:18:21;11.63;;;6.60;;
20397;SDS011;10358;49.590;11.030;2023-04-15T07:20:46;10.63;;;6.50;;
20397;SDS011;10358;49.590;11.030;2023-04-15T07:23:12;10.13;;;6.10;;
20397;SDS011;10358;49.590;11.030;2023-04-15T07:25:38;10.90;;;6.07;;
20397;SDS011;10358;49.590;11.030;2023-04-15T07:28:03;10.40;;;5.97;;
20397;SDS011;10358;49.590;11.030;2023-04-15T07:30:29;8.33;;;6.00;;
20397;SDS011;10358;49.590;11.030;2023-04-15T07:32:55;9.93;;;5.80;;
20397;SDS011;10358;49.590;11.030;2023-04-15T07:35:22;8.87;;;5.70;;
20397;SDS011;10358;49.590;11.030;2023-04-15T07:37:49;10.40;;;6.00;;
20397;SDS011;10358;49.590;11.030;2023-04-15T07:40:15;8.03;;;5.30;;
20397;SDS011;10358;49.590;11.030;2023-04-15T07:42:40;7.07;;;4.80;;
20397;SDS011;10358;49.590;11.030;2023-04-15T07:45:06;6.77;;;5.03;;
20397;SDS011;10358;49.590;11.030;2023-04-15T07:47:33;6.67;;;4.40;;
20397;SDS011;10358;49.590;11.030;2023-04-15T07:49:58;6.37;;;4.40;;
20397;SDS011;10358;49.590;11.030;2023-04-15T07:52:24;6.70;;;3.77;;
20397;SDS011;10358;49.590;11.030;2023-04-15T07:54:49;7.43;;;4.10;;
20397;SDS011;10358;49.590;11.030;2023-04-15T07:57:15;6.07;;;3.90;;
20397;SDS011;10358;49.590;11.030;2023-04-15T07:59:41;6.20;;;4.97;;
20397;SDS011;10358;49.590;11.030;2023-04-15T08:02:07;6.60;;;4.60;;
20397;SDS011;10358;49.590;11.030;2023-04-15T08:04:32;8.03;;;4.37;;
20397;SDS011;10358;49.590;11.030;2023-04-15T08:06:58;6.20;;;4.40;;
20397;SDS011;10358;49.590;11.030;2023-04-15T08:09:23;8.27;;;5.00;;
20397;SDS011;10358;49.590;11.030;2023-04-15T08:11:50;7.77;;;5.23;;
20397;SDS011;10358;49.590;11.030;2023-04-15T08:14:16;8.17;;;4.83;;
20397;SDS011;10358;49.590;11.030;2023-04-15T08:16:41;9.53;;;5.50;;
20397;SDS011;10358;49.590;11.030;2023-04-15T08:19:07;8.87;;;5.40;;
20397;SDS011;10358;49.590;11.030;2023-04-15T08:21:33;9.10;;;5.40;;
20397;SDS011;10358;49.590;11.030;2023-04-15T08:23:58;9.93;;;5.70;;
20397;SDS011;10358;49.590;11.030;2023-04-15T08:26:24;10.97;;;5.60;;
20397;SDS011;10358;49.590;11.030;2023-04-15T08:28:50;8.97;;;6.10;;
20397;SDS011;10358;49.590;11.030;2023-04-15T08:31:16;9.63;;;5.43;;
20397;SDS011;10358;49.590;11.030;2023-04-15T08:33:42;9.77;;;6.10;;
20397;SDS011;10358;49.590;11.030;2023-04-15T08:36:08;8.37;;;5.27;;
20397;SDS011;10358;49.590;11.030;2023-04-15T08:38:34;8.90;;;5.03;;
20397;SDS011;10358;49.590;11.030;2023-04-15T08:41:11;8.77;;;5.57;;
20397;SDS011;10358;49.590;11.030;2023-04-15T08:43:51;7.30;;;4.80;;
20397;SDS011;10358;49.590;11.030;2023-04-15T08:46:26;6.90;;;4.80;;
20397;SDS011;10358;49.590;11.030;2023-04-15T08:48:52;7.83;;;4.50;;
20397;SDS011;10358;49.590;11.030;2023-04-15T08:51:21;6.30;;;4.80;;
20397;SDS011;10358;49.590;11.030;2023-04-15T08:53:47;7.53;;;4.60;;
20397;SDS011;10358;49.590;11.030;2023-04-15T08:56:15;7.60;;;5.00;;
20397;SDS011;10358;49.590;11.030;2023-04-15T08:58:42;8.73;;;4.90;;
20397;SDS011;10358;49.590;11.030;2023-04-15T09:01:08;10.90;;;4.90;;
20397;SDS011;10358;49.590;11.030;2023-04-15T09:03:36;9.23;;;5.23;;
20397;SDS011;10358;49.590;11.030;2023-04-15T09:06:03;8.60;;;4.90;;
20397;SDS011;10358;49.590;11.030;2023-04-15T09:08:29;9.37;;;5.20;;
20397;SDS011;10358;49.590;11.030;2023-04-15T09:10:55;7.20;;;4.77;;
20397;SDS011;10358;49.590;11.030;2023-04-15T09:13:21;6.17;;;4.53;;
20397;SDS011;10358;49.590;11.030;2023-04-15T09:15:46;8.27;;;4.83;;
20397;SDS011;10358;49.590;11.030;2023-04-15T09:18:12;8.60;;;5.67;;
20397;SDS011;10358;49.590;11.030;2023-04-15T09:20:50;9.73;;;5.57;;
20397;SDS011;10358;49.590;11.030;2023-04-15T09:23:17;7.53;;;5.00;;
20397;SDS011;10358;49.590;11.030;2023-04-15T09:25:43;9.43;;;5.67;;
20397;SDS011;10358;49.590;11.030;2023-04-15T09:28:10;8.67;;;5.53;;
20397;SDS011;10358;49.590;11.030;2023-04-15T09:30:35;9.60;;;6.13;;
20397;SDS011;10358;49.590;11.030;2023-04-15T09:33:02;9.73;;;6.00;;
20397;SDS011;10358;49.590;11.030;2023-04-15T09:35:32;8.17;;;5.87;;
20397;SDS011;10358;49.590;11.030;2023-04-15T09:38:05;8.23;;;6.00;;
20397;SDS011;10358;49.590;11.030;2023-04-15T09:40:37;7.83;;;5.53;;
20397;SDS011;10358;49.590;11.030;2023-04-15T09:43:05;9.20;;;6.00;;
20397;SDS011;10358;49.590;11.030;2023-04-15T09:45:32;8.73;;;5.30;;
20397;SDS011;10358;49.590;11.030;2023-04-15T09:47:59;6.70;;;5.00;;
20397;SDS011;10358;49.590;11.030;2023-04-15T09:50:47;6.97;;;4.70;;
20397;SDS011;10358;49.590;11.030;2023-04-15T09:53:18;8.00;;;5.00;;
20397;SDS011;10358;49.590;11.030;2023-04-15T09:55:45;8.10;;;4.77;;
20397;SDS011;10358;49.590;11.030;2023-04-15T09:58:24;6.97;;;4.60;;
20397;SDS011;10358;49.590;11.030;2023-04-15T10:00:52;4.87;;;3.70;;
20397;SDS011;10358;49.590;11.030;2023-04-15T10:03:21;8.03;;;3.80;;
20397;SDS011;10358;49.590;11.030;2023-04-15T10:05:50;5.20;;;3.80;;
20397;SDS011;10358;49.590;11.030;2023-04-15T10:08:18;4.80;;;3.53;;
20397;SDS011;10358;49.590;11.030;2023-04-15T10:10:46;6.50;;;4.07;;
20397;SDS011;10358;49.590;11.030;2023-04-15T10:13:13;7.87;;;4.20;;
20397;SDS011;10358;49.590;11.030;2023-04-15T10:15:42;5.90;;;3.60;;
20397;SDS011;10358;49.590;11.030;2023-04-15T10:18:10;5.50;;;3.70;;
20397;SDS011;10358;49.590;11.030;2023-04-15T10:20:36;6.53;;;3.73;;
20397;SDS011;10358;49.590;11.030;2023-04-15T10:23:03;5.47;;;3.70;;
20397;SDS011;10358;49.590;11.030;2023-04-15T10:25:29;5.37;;;3.60;;
20397;SDS011;10358;49.590;11.030;2023-04-15T10:27:57;5.17;;;3.50;;
20397;SDS011;10358;49.590;11.030;2023-04-15T10:30:24;3.60;;;2.80;;
20397;SDS011;10358;49.590;11.030;2023-04-15T10:32:49;4.43;;;2.40;;
20397;SDS011;10358;49.590;11.030;2023-04-15T10:35:16;3.23;;;2.60;;
20397;SDS011;10358;49.590;11.030;2023-04-15T10:37:42;4.10;;;2.90;;
20397;SDS011;10358;49.590;11.030;2023-04-15T10:42:59;3.43;;;2.73;;
20397;SDS011;10358;49.590;11.030;2023-04-15T10:45:26;3.50;;;2.10;;
20397;SDS011;10358;49.590;11.030;2023-04-15T10:47:56;4.87;;;2.40;;
20397;SDS011;10358;49.590;11.030;2023-04-15T10:50:24;3.23;;;2.40;;
20397;SDS011;10358;49.590;11.030;2023-04-15T10:52:50;4.33;;;2.70;;
20397;SDS011;10358;49.590;11.030;2023-04-15T10:55:21;4.03;;;2.80;;
20397;SDS011;10358;49.590;11.030;2023-04-15T10:57:57;4.87;;;2.57;;
20397;SDS011;10358;49.590;11.030;2023-04-15T11:00:25;2.77;;;2.20;;
20397;SDS011;10358;49.590;11.030;2023-04-15T11:02:57;3.50;;;2.37;;
20397;SDS011;10358;49.590;11.030;2023-04-15T11:08:05;2.67;;;2.07;;
20397;SDS011;10358;49.590;11.030;2023-04-15T11:15:39;4.07;;;2.00;;
20397;SDS011;10358;49.590;11.030;2023-04-15T11:18:10;3.37;;;2.20;;
20397;SDS011;10358;49.590;11.030;2023-04-15T11:20:40;2.33;;;2.13;;
20397;SDS011;10358;49.590;11.030;2023-04-15T11:23:09;3.50;;;2.00;;
20397;SDS011;10358;49.590;11.030;2023-04-15T11:25:35;2.53;;;2.00;;
20397;SDS011;10358;49.590;11.030;2023-04-15T11:28:01;2.23;;;2.03;;
20397;SDS011;10358;49.590;11.030;2023-04-15T11:30:28;2.93;;;1.77;;
20397;SDS011;10358;49.590;11.030;2023-04-15T11:32:57;2.97;;;1.83;;
20397;SDS011;10358;49.590;11.030;2023-04-15T11:35:23;2.07;;;1.60;;
20397;SDS011;10358;49.590;11.030;2023-04-15T11:37:49;2.93;;;1.83;;
20397;SDS011;10358;49.590;11.030;2023-04-15T11:40:15;1.90;;;1.70;;
20397;SDS011;10358;49.590;11.030;2023-04-15T11:42:46;2.43;;;1.83;;
20397;SDS011;10358;49.590;11.030;2023-04-15T11:45:13;2.23;;;1.73;;
20397;SDS011;10358;49.590;11.030;2023-04-15T11:47:40;2.37;;;1.77;;
20397;SDS011;10358;49.590;11.030;2023-04-15T11:50:16;2.57;;;1.90;;
20397;SDS011;10358;49.590;11.030;2023-04-15T11:52:55;2.20;;;1.80;;
20397;SDS011;10358;49.590;11.030;2023-04-15T11:55:22;2.67;;;1.67;;
20397;SDS011;10358;49.590;11.030;2023-04-15T11:58:51;4.77;;;1.80;;
20397;SDS011;10358;49.590;11.030;2023-04-15T12:00:51;3.73;;;1.90;;
20397;SDS011;10358;49.590;11.030;2023-04-15T12:06:07;2.43;;;1.60;;
20397;SDS011;10358;49.590;11.030;2023-04-15T12:11:29;2.40;;;1.63;;
20397;SDS011;10358;49.590;11.030;2023-04-15T12:16:35;1.73;;;1.50;;
20397;SDS011;10358;49.590;11.030;2023-04-15T12:19:25;1.70;;;1.37;;
20397;SDS011;10358;49.590;11.030;2023-04-15T12:21:57;2.03;;;1.30;;
20397;SDS011;10358;49.590;11.030;2023-04-15T12:24:25;1.93;;;1.50;;
20397;SDS011;10358;49.590;11.030;2023-04-15T12:26:51;2.00;;;1.40;;
20397;SDS011;10358;49.590;11.030;2023-04-15T12:29:19;2.33;;;1.50;;
20397;SDS011;10358;49.590;11.030;2023-04-15T12:31:55;1.70;;;1.30;;
20397;SDS011;10358;49.590;11.030;2023-04-15T12:34:26;1.70;;;1.43;;
20397;SDS011;10358;49.590;11.030;2023-04-15T12:36:57;2.07;;;1.50;;
20397;SDS011;10358;49.590;11.030;2023-04-15T12:39:24;1.33;;;1.10;;
20397;SDS011;10358;49.590;11.030;2023-04-15T12:41:52;2.10;;;1.60;;
20397;SDS011;10358;49.590;11.030;2023-04-15T12:44:18;3.23;;;1.30;;
20397;SDS011;10358;49.590;11.030;2023-04-15T12:46:44;2.40;;;1.20;;
20397;SDS011;10358;49.590;11.030;2023-04-15T12:49:10;2.00;;;1.50;;
20397;SDS011;10358;49.590;11.030;2023-04-15T12:51:38;1.80;;;1.40;;
20397;SDS011;10358;49.590;11.030;2023-04-15T12:54:04;1.77;;;1.10;;
20397;SDS011;10358;49.590;11.030;2023-04-15T12:56:29;2.67;;;1.30;;
20397;SDS011;10358;49.590;11.030;2023-04-15T12:58:55;1.93;;;1.43;;
20397;SDS011;10358;49.590;11.030;2023-04-15T13:01:21;2.43;;;1.53;;
20397;SDS011;10358;49.590;11.030;2023-04-15T13:03:47;1.80;;;1.40;;
20397;SDS011;10358;49.590;11.030;2023-04-15T13:06:14;1.60;;;1.40;;
20397;SDS011;10358;49.590;11.030;2023-04-15T13:08:40;2.03;;;1.60;;
20397;SDS011;10358;49.590;11.030;2023-04-15T13:11:05;2.40;;;1.63;;
20397;SDS011;10358;49.590;11.030;2023-04-15T13:13:31;3.00;;;1.70;;
20397;SDS011;10358;49.590;11.030;2023-04-15T13:15:57;1.90;;;1.30;;
20397;SDS011;10358;49.590;11.030;2023-04-15T13:18:22;2.17;;;1.40;;
20397;SDS011;10358;49.590;11.030;2023-04-15T13:20:48;1.90;;;1.50;;
20397;SDS011;10358;49.590;11.030;2023-04-15T13:23:15;1.80;;;1.43;;
20397;SDS011;10358;49.590;11.030;2023-04-15T13:25:41;2.03;;;1.40;;
20397;SDS011;10358;49.590;11.030;2023-04-15T13:28:06;1.80;;;1.40;;
20397;SDS011;10358;49.590;11.030;2023-04-15T13:30:32;2.00;;;1.57;;
20397;SDS011;10358;49.590;11.030;2023-04-15T13:32:57;2.80;;;1.80;;
20397;SDS011;10358;49.590;11.030;2023-04-15T13:35:23;2.10;;;1.53;;
20397;SDS011;10358;49.590;11.030;2023-04-15T13:37:49;1.93;;;1.50;;
20397;SDS011;10358;49.590;11.030;2023-04-15T13:40:15;2.20;;;1.60;;
20397;SDS011;10358;49.590;11.030;2023-04-15T13:42:41;1.97;;;1.53;;
20397;SDS011;10358;49.590;11.030;2023-04-15T13:45:07;1.80;;;1.53;;
20397;SDS011;10358;49.590;11.030;2023-04-15T13:47:33;2.47;;;1.47;;
20397;SDS011;10358;49.590;11.030;2023-04-15T13:49:58;1.73;;;1.37;;
20397;SDS011;10358;49.590;11.030;2023-04-15T13:52:24;1.90;;;1.60;;
20397;SDS011;10358;49.590;11.030;2023-04-15T13:54:49;1.93;;;1.33;;
20397;SDS011;10358;49.590;11.030;2023-04-15T13:57:15;2.07;;;1.30;;
20397;SDS011;10358;49.590;11.030;2023-04-15T13:59:41;1.97;;;1.50;;
20397;SDS011;10358;49.590;11.030;2023-04-15T14:02:07;1.60;;;1.40;;
20397;SDS011;10358;49.590;11.030;2023-04-15T14:04:33;1.97;;;1.43;;
20397;SDS011;10358;49.590;11.030;2023-04-15T14:06:59;1.80;;;1.40;;
20397;SDS011;10358;49.590;11.030;2023-04-15T14:09:25;2.33;;;1.40;;
20397;SDS011;10358;49.590;11.030;2023-04-15T14:11:50;3.20;;;1.50;;
20397;SDS011;10358;49.590;11.030;2023-04-15T14:14:16;1.60;;;1.30;;
20397;SDS011;10358;49.590;11.030;2023-04-15T14:16:42;2.03;;;1.60;;
20397;SDS011;10358;49.590;11.030;2023-04-15T14:19:07;2.10;;;1.57;;
20397;SDS011;10358;49.590;11.030;2023-04-15T14:21:33;1.67;;;1.40;;
20397;SDS011;10358;49.590;11.030;2023-04-15T14:23:58;2.97;;;1.60;;
20397;SDS011;10358;49.590;11.030;2023-04-15T14:26:24;2.53;;;1.60;;
20397;SDS011;10358;49.590;11.030;2023-04-15T14:28:50;2.20;;;1.53;;
20397;SDS011;10358;49.590;11.030;2023-04-15T14:31:16;2.13;;;1.60;;
20397;SDS011;10358;49.590;11.030;2023-04-15T14:33:43;1.80;;;1.40;;
20397;SDS011;10358;49.590;11.030;2023-04-15T14:36:10;2.60;;;1.60;;
20397;SDS011;10358;49.590;11.030;2023-04-15T14:38:35;1.53;;;1.40;;
20397;SDS011;10358;49.590;11.030;2023-04-15T14:41:05;2.20;;;1.70;;
20397;SDS011;10358;49.590;11.030;2023-04-15T14:43:31;1.97;;;1.77;;
20397;SDS011;10358;49.590;11.030;2023-04-15T14:45:57;2.10;;;1.70;;